Airfield :
LOGIN :

Register | Disclaimer

   EN    FR    IT 

 










Legend :    VFR   Marginal VFR   IFR   Intensive IFR   Very Intensive IFR
Visi :
Ceiling :
>= 8 km
>= 3000ft
5 to 8 km
1000 to 3000 ft
1500m to 5 km
500 to 1000 ft
800 to 1500m
200 to 500 ft
< 800m
< 200 ft
Symbols :   Thunderstorms  Fog  Heavy snow  Heavy precipitations  Wind > 20 kt
SIGMETs :     Misc.  Thunderstorms  Icing  Turbulence  Mountain Waves  Volcanic Ashes







- Airport Elevation : 86 ft


LERT - Rota Navy

CURRENT METAR :
  • 201700Z 12019KT CAVOK 32/15 Q1013 NOSIG

EXPIRED METARs :
  • 201600Z 12017KT CAVOK 33/16 Q1013 NOSIG
  • 201500Z 13014KT 110V170 CAVOK 34/16 Q1013 NOSIG

TAF TAF LERT
Valid from the 20 at 18:00 until the 21 at 03:00 UTC


201700Z 2018/2103 12016KT CAVOK
BECMG 2100/2103 08006KT
No reported NOTAMs for that airfield.
1 SIGMET reported for the Madrid FIR (LECM) :
 
Embedded thunderstorms
LECM SIGMET 2 VALID 201630/201830 LEVA
LECM MADRID FIR/UIR EMBD TS OBS AT 1614Z W OF LINE N3716 W00416 - N3855 W00415 TOP FL400 MOV NE NC=



MET'MAP, your aeronautical weather chart ! - Copyright ORBIFLY December 2007 - Disclaimer

ORBIFLY MET'MAP TEAM :

Programming & Development : Alexandra Zaïnal
Concept & Development : Baudouin d'Aumeries
Co-Development & Prog : Marc-Olivier Méhu
Technical & hardware support : Manuel Goepfert

Contact : metmap@orbifly.com




SOURCES & CREDITS :

   NOAA